Kincaid, Kansas
Current Conditions -  °F | °C
As of 7:52 AM on Monday 22 Dec 2014 (Local Time) from KCNU Reporting Station
Haze Haze  
Wind Chill: 41°   Ceiling: 400
Heat Index: 45°   Visibility: 4mi
Dew Point: 44°   Wind: 8mph
Humidity: 97%   Direction: 150°SSE
Pressure: 29.59"   Gusts: NA
Location:  38.08°N, 95.15°W
Report Text: KCNU 221352Z AUTO 15007KT 4SM BR OVC004 07/07 A2959 RMK AO2 SLP021 T00720067
Loading
Personal Weather Stations






























Interactive Weather Map New forecast layout! Learn more

10-Day Weather Forecast

Advertisements
Track Severe Weather on mobile